Time;durP1;ratioP1;P1;durP2;ratioP2;P2;SDS_P1;SDS_P2;PMS_P1;PMS_P2;Temp;Humidity;BMP_temperature;BMP_pressure;BME280_temperature;BME280_humidity;BME280_pressure;Samples;Min_cycle;Max_cycle;Signal;HPM_P1;HPM_P2
2022/01/02 00:01:42;;;;;;;7.57;4.03;;;;;;;2.70;100.00;97015.13;5029123;28;20320;-90
2022/01/02 00:04:15;;;;;;;6.83;4.23;;;;;;;2.65;100.00;97010.28;5028724;28;20246;-89
2022/01/02 00:06:47;;;;;;;4.20;3.57;;;;;;;2.66;100.00;97016.44;5071618;28;20209;-89
2022/01/02 00:09:31;;;;;;;5.67;3.63;;;;;;;2.74;100.00;97019.13;5051148;28;20205;-89
2022/01/02 00:12:05;;;;;;;5.83;3.50;;;;;;;2.75;100.00;97015.47;5018121;28;20211;-89
2022/01/02 00:14:35;;;;;;;5.83;4.03;;;;;;;2.73;100.00;97011.28;5070245;28;20205;-88
2022/01/02 00:17:04;;;;;;;7.70;3.73;;;;;;;2.81;100.00;97008.63;5039934;28;20285;-89
2022/01/02 00:19:32;;;;;;;5.77;3.67;;;;;;;2.79;100.00;97005.31;5027980;28;20319;-90
2022/01/02 00:22:03;;;;;;;4.30;3.30;;;;;;;2.74;100.00;97008.44;5030666;28;20223;-89
2022/01/02 00:24:32;;;;;;;6.97;3.67;;;;;;;2.76;100.00;97017.13;5027929;28;20229;-90
2022/01/02 00:27:00;;;;;;;4.17;3.03;;;;;;;2.72;100.00;97030.97;5025971;28;20205;-89
2022/01/02 00:29:28;;;;;;;5.10;3.60;;;;;;;2.69;100.00;97025.94;5041251;28;20206;-90
2022/01/02 00:31:56;;;;;;;5.07;3.47;;;;;;;2.64;100.00;97029.94;5028000;28;20206;-89
2022/01/02 00:34:24;;;;;;;6.40;3.97;;;;;;;2.61;100.00;97051.63;5039302;28;20245;-89
2022/01/02 00:36:51;;;;;;;8.20;4.30;;;;;;;2.59;100.00;97055.44;5043398;28;20237;-89
2022/01/02 00:39:19;;;;;;;6.17;4.13;;;;;;;2.53;100.00;97061.44;5054980;28;20221;-90
2022/01/02 00:41:53;;;;;;;7.03;4.23;;;;;;;2.53;100.00;97058.75;5058412;28;20202;-89
2022/01/02 00:44:33;;;;;;;6.33;4.30;;;;;;;2.59;100.00;97052.75;5018662;28;20226;-89
2022/01/02 00:47:08;;;;;;;6.60;4.40;;;;;;;2.56;100.00;97064.56;5038161;28;20206;-89
2022/01/02 00:49:40;;;;;;;9.53;5.13;;;;;;;2.52;100.00;97062.41;5052269;28;20598;-89
2022/01/02 00:52:15;;;;;;;8.43;4.50;;;;;;;2.40;100.00;97063.69;5033944;28;20209;-89
2022/01/02 00:54:46;;;;;;;7.60;4.83;;;;;;;2.39;100.00;97062.03;5038368;28;20213;-90
2022/01/02 00:57:18;;;;;;;8.00;5.00;;;;;;;2.36;100.00;97065.88;5025459;28;20198;-90
2022/01/02 00:59:49;;;;;;;7.57;4.87;;;;;;;2.32;100.00;97064.50;5053413;28;20214;-89
2022/01/02 01:02:19;;;;;;;9.70;4.53;;;;;;;2.26;100.00;97075.81;5039115;28;20229;-90
2022/01/02 01:04:49;;;;;;;8.17;5.10;;;;;;;2.21;100.00;97070.97;5019773;28;20226;-89
2022/01/02 01:07:17;;;;;;;8.10;4.67;;;;;;;2.25;100.00;97071.50;5027553;28;20640;-89
2022/01/02 01:09:44;;;;;;;11.87;5.00;;;;;;;2.24;100.00;97083.13;5026262;28;20210;-89
2022/01/02 01:12:11;;;;;;;7.87;5.13;;;;;;;2.30;100.00;97085.16;5055001;28;20195;-90
2022/01/02 01:14:41;;;;;;;8.37;4.70;;;;;;;2.24;100.00;97075.97;5057485;28;20217;-89
2022/01/02 01:17:13;;;;;;;7.57;4.80;;;;;;;2.29;100.00;97080.84;5054189;28;20260;-90
2022/01/02 01:19:40;;;;;;;7.67;4.60;;;;;;;2.27;100.00;97070.34;5023480;28;20265;-90
2022/01/02 01:22:08;;;;;;;5.50;4.10;;;;;;;2.33;100.00;97084.00;5012434;28;20301;-90
2022/01/02 01:24:37;;;;;;;6.80;3.97;;;;;;;2.32;100.00;97074.34;5025141;28;20324;-89
2022/01/02 01:27:07;;;;;;;4.87;3.20;;;;;;;2.36;100.00;97062.38;5051902;28;20576;-89
2022/01/02 01:29:35;;;;;;;5.23;3.57;;;;;;;2.41;100.00;97060.03;5026526;28;20221;-90
2022/01/02 01:32:07;;;;;;;4.17;3.27;;;;;;;2.49;100.00;97063.56;5021312;28;20217;-90
2022/01/02 01:34:35;;;;;;;5.37;3.40;;;;;;;2.60;100.00;97065.09;5023446;28;20222;-89
2022/01/02 01:37:02;;;;;;;4.53;3.23;;;;;;;2.69;100.00;97058.78;5028500;28;20232;-88
2022/01/02 01:39:32;;;;;;;8.40;3.93;;;;;;;2.83;100.00;97060.81;5020684;28;20240;-89
2022/01/02 01:42:07;;;;;;;6.83;3.70;;;;;;;2.82;100.00;97066.28;5032237;28;20214;-88
2022/01/02 01:47:23;;;;;;;4.60;3.33;;;;;;;2.73;100.00;97059.28;5020429;28;20204;-89
2022/01/02 01:49:50;;;;;;;4.27;2.93;;;;;;;2.76;100.00;97058.97;5026327;28;20241;-88
2022/01/02 01:52:18;;;;;;;5.13;3.20;;;;;;;2.72;100.00;97057.63;5026756;28;20250;-89
2022/01/02 01:54:45;;;;;;;4.80;3.30;;;;;;;2.73;100.00;97052.13;5038112;28;20199;-89
2022/01/02 01:57:12;;;;;;;3.37;2.73;;;;;;;2.78;100.00;97041.81;5027667;28;20206;-88
2022/01/02 01:59:40;;;;;;;3.60;2.80;;;;;;;2.78;100.00;97036.47;5061741;28;20198;-88
2022/01/02 02:02:08;;;;;;;4.17;2.03;;;;;;;2.85;100.00;97037.47;5032229;28;20218;-88
2022/01/02 02:04:37;;;;;;;3.57;2.30;;;;;;;2.92;100.00;97021.63;5058658;28;20246;-88
2022/01/02 02:07:04;;;;;;;3.70;2.10;;;;;;;3.00;100.00;97009.13;5060703;28;20509;-88
2022/01/02 02:09:46;;;;;;;3.07;1.87;;;;;;;3.14;100.00;97012.97;5042219;28;20202;-88
2022/01/02 02:12:15;;;;;;;1.60;1.07;;;;;;;3.35;100.00;96978.56;5066114;28;20202;-89
2022/01/02 02:14:44;;;;;;;2.10;1.30;;;;;;;3.64;100.00;96982.53;5029893;28;20226;-88
2022/01/02 02:17:12;;;;;;;1.67;1.47;;;;;;;3.99;100.00;96983.91;5053130;28;20202;-88
2022/01/02 02:19:41;;;;;;;1.50;1.10;;;;;;;4.13;100.00;96977.81;5064497;28;20224;-90
2022/01/02 02:22:12;;;;;;;1.87;1.13;;;;;;;4.25;100.00;96972.91;5029186;28;20253;-88
2022/01/02 02:24:40;;;;;;;2.23;1.23;;;;;;;4.23;100.00;96970.41;5043861;28;20245;-88
2022/01/02 02:27:08;;;;;;;1.20;1.10;;;;;;;4.18;100.00;96978.09;5067143;28;20210;-88
2022/01/02 02:29:35;;;;;;;1.20;1.00;;;;;;;4.10;100.00;96972.78;5034414;28;20214;-88
2022/01/02 02:32:02;;;;;;;1.47;1.37;;;;;;;4.07;100.00;96978.50;5026084;28;20202;-89
2022/01/02 02:34:29;;;;;;;2.00;1.40;;;;;;;3.99;100.00;96968.69;5058681;28;20213;-89
2022/01/02 02:36:56;;;;;;;1.40;1.20;;;;;;;4.03;100.00;96974.50;5031805;28;20354;-88
2022/01/02 02:39:26;;;;;;;2.13;1.43;;;;;;;3.94;100.00;96971.03;5009031;28;20203;-88
2022/01/02 02:41:54;;;;;;;1.47;1.23;;;;;;;3.82;100.00;96960.94;5008360;28;20698;-88
2022/01/02 02:44:34;;;;;;;2.23;1.40;;;;;;;3.76;100.00;96951.75;5007041;28;20288;-88
2022/01/02 02:49:47;;;;;;;1.67;1.10;;;;;;;3.57;100.00;96933.47;5007426;28;20213;-89
2022/01/02 02:52:26;;;;;;;1.27;1.17;;;;;;;3.50;100.00;96925.28;5016316;28;20247;-87
2022/01/02 02:54:55;;;;;;;1.63;1.00;;;;;;;3.41;100.00;96921.00;5029366;28;20206;-88
2022/01/02 02:57:24;;;;;;;1.30;1.13;;;;;;;3.35;100.00;96924.34;5010706;28;20238;-89
2022/01/02 02:59:51;;;;;;;2.13;1.20;;;;;;;3.32;100.00;96917.50;5010079;28;20277;-89
2022/01/02 03:02:18;;;;;;;2.07;1.10;;;;;;;3.31;100.00;96933.72;5017167;28;20237;-88
2022/01/02 03:04:47;;;;;;;2.10;1.00;;;;;;;3.19;100.00;96925.22;5005746;28;20223;-89
2022/01/02 03:07:15;;;;;;;1.23;0.90;;;;;;;3.17;100.00;96926.41;5012652;28;20201;-88
2022/01/02 03:09:47;;;;;;;1.30;1.10;;;;;;;3.08;100.00;96911.41;5023481;28;20207;-88
2022/01/02 03:12:18;;;;;;;1.60;1.30;;;;;;;3.04;100.00;96918.94;5017027;28;20218;-88
2022/01/02 03:14:49;;;;;;;1.33;1.23;;;;;;;3.00;100.00;96913.09;5015625;28;20210;-88
2022/01/02 03:17:17;;;;;;;2.57;1.70;;;;;;;2.96;100.00;96911.78;5012655;28;20218;-88
2022/01/02 03:19:45;;;;;;;2.70;1.70;;;;;;;2.88;100.00;96917.13;5042792;28;20211;-88
2022/01/02 03:22:14;;;;;;;3.07;2.13;;;;;;;2.84;100.00;96922.94;5008772;28;20219;-89
2022/01/02 03:24:41;;;;;;;5.90;2.40;;;;;;;2.77;100.00;96921.97;5044884;28;20223;-88
2022/01/02 03:27:08;;;;;;;3.43;2.30;;;;;;;2.66;100.00;96915.13;5016112;28;20268;-88
2022/01/02 03:29:37;;;;;;;3.70;2.30;;;;;;;2.60;100.00;96910.47;5009375;28;20277;-89
2022/01/02 03:32:04;;;;;;;2.60;2.00;;;;;;;2.50;100.00;96915.13;5021436;28;20411;-88
2022/01/02 03:34:32;;;;;;;4.53;2.67;;;;;;;2.48;100.00;96925.13;5012879;28;20211;-88
2022/01/02 03:36:59;;;;;;;4.03;2.10;;;;;;;2.41;100.00;96926.78;5023779;28;20230;-88
2022/01/02 03:39:26;;;;;;;4.00;2.07;;;;;;;2.32;100.00;96920.59;5026392;28;20209;-88
2022/01/02 03:41:53;;;;;;;4.70;1.97;;;;;;;2.34;100.00;96926.63;5038410;28;20198;-88
2022/01/02 03:44:21;;;;;;;4.83;2.33;;;;;;;2.33;100.00;96908.13;5033850;28;20300;-87
2022/01/02 03:46:50;;;;;;;3.77;1.90;;;;;;;2.28;100.00;96906.78;5027664;28;20206;-88
2022/01/02 03:49:17;;;;;;;3.17;2.10;;;;;;;2.24;100.00;96900.13;5043361;28;20229;-89
2022/01/02 03:51:44;;;;;;;3.47;2.20;;;;;;;2.31;100.00;96910.09;5039670;28;20297;-88
2022/01/02 03:54:11;;;;;;;3.03;2.07;;;;;;;2.31;100.00;96900.28;5039027;28;20277;-89
2022/01/02 03:56:39;;;;;;;2.27;1.90;;;;;;;2.31;100.00;96902.13;5029399;28;20224;-89
2022/01/02 03:59:06;;;;;;;2.90;2.10;;;;;;;2.31;100.00;96904.78;5060247;28;20298;-89
2022/01/02 04:01:34;;;;;;;2.87;2.00;;;;;;;2.30;100.00;96916.47;5063515;28;20230;-88
2022/01/02 04:04:03;;;;;;;3.37;1.77;;;;;;;2.25;100.00;96907.13;5044956;28;20225;-88
2022/01/02 04:06:30;;;;;;;3.50;2.10;;;;;;;2.26;100.00;96916.78;5029062;28;20349;-88
2022/01/02 04:08:57;;;;;;;3.53;1.90;;;;;;;2.19;100.00;96902.47;5027022;28;20242;-88
2022/01/02 04:11:25;;;;;;;3.17;1.80;;;;;;;2.23;100.00;96914.44;5037416;28;20214;-88
2022/01/02 04:13:52;;;;;;;2.63;1.80;;;;;;;2.21;100.00;96900.44;5024154;28;20233;-89
2022/01/02 04:16:19;;;;;;;2.60;1.80;;;;;;;2.20;100.00;96914.78;5056718;28;20209;-88
2022/01/02 04:18:46;;;;;;;4.23;2.17;;;;;;;2.17;100.00;96909.78;5032621;28;20206;-90
2022/01/02 04:21:16;;;;;;;2.63;1.80;;;;;;;2.14;100.00;96915.41;5027680;28;20206;-88
2022/01/02 04:23:46;;;;;;;2.00;1.70;;;;;;;2.13;100.00;96911.09;5055908;28;20202;-89
2022/01/02 04:26:13;;;;;;;3.63;1.83;;;;;;;2.00;100.00;96902.75;5017555;28;20233;-88
2022/01/02 04:28:40;;;;;;;3.97;2.47;;;;;;;1.91;100.00;96909.06;5056136;28;20244;-88
2022/01/02 04:31:09;;;;;;;5.10;2.57;;;;;;;1.88;100.00;96904.88;5056279;28;20226;-89
2022/01/02 04:33:37;;;;;;;6.57;3.07;;;;;;;1.96;100.00;96906.72;5029749;28;20199;-89
2022/01/02 04:36:05;;;;;;;7.50;3.30;;;;;;;1.94;100.00;96902.56;5025274;28;20209;-89
2022/01/02 04:38:34;;;;;;;4.87;2.93;;;;;;;1.96;100.00;96897.94;5044877;28;20198;-88
2022/01/02 04:41:01;;;;;;;3.77;2.60;;;;;;;1.98;100.00;96891.41;5027971;28;20190;-88
2022/01/02 04:43:29;;;;;;;4.13;2.17;;;;;;;2.05;100.00;96891.59;5035738;28;20197;-88
2022/01/02 04:45:57;;;;;;;4.50;2.77;;;;;;;1.99;100.00;96882.44;5067839;28;20218;-88
2022/01/02 04:48:25;;;;;;;3.17;2.23;;;;;;;2.02;100.00;96884.78;5028369;28;20288;-88
2022/01/02 04:50:52;;;;;;;2.83;2.20;;;;;;;1.96;100.00;96877.41;5062753;28;20297;-88
2022/01/02 04:53:21;;;;;;;4.80;2.70;;;;;;;1.93;100.00;96861.78;5060331;28;20344;-88
2022/01/02 04:55:50;;;;;;;2.67;2.30;;;;;;;1.94;100.00;96855.47;5026767;28;20209;-89
2022/01/02 04:58:18;;;;;;;3.60;1.93;;;;;;;1.97;100.00;96849.81;5059408;28;20316;-89
2022/01/02 05:00:45;;;;;;;3.63;1.90;;;;;;;2.04;100.00;96840.16;5060332;28;20230;-88
2022/01/02 05:03:12;;;;;;;3.60;2.37;;;;;;;2.09;100.00;96843.16;5030808;28;20202;-88
2022/01/02 05:05:40;;;;;;;2.93;1.83;;;;;;;2.10;100.00;96844.00;5036244;28;20217;-87
2022/01/02 05:08:07;;;;;;;2.57;2.00;;;;;;;2.07;100.00;96837.16;5023633;28;20210;-90
2022/01/02 05:10:34;;;;;;;4.83;1.83;;;;;;;2.08;100.00;96824.69;5033248;28;20201;-89
2022/01/02 05:13:03;;;;;;;2.90;1.93;;;;;;;2.05;100.00;96820.50;5035604;28;20553;-89
2022/01/02 05:15:30;;;;;;;2.90;1.63;;;;;;;2.10;100.00;96818.19;5023875;28;20229;-89
2022/01/02 05:17:57;;;;;;;2.47;2.00;;;;;;;2.11;100.00;96809.22;5024606;28;20206;-88
2022/01/02 05:20:24;;;;;;;3.97;2.00;;;;;;;2.08;100.00;96800.72;5027459;28;20198;-90
2022/01/02 05:22:51;;;;;;;3.07;1.90;;;;;;;2.16;100.00;96806.03;5036762;28;20224;-89
2022/01/02 05:25:18;;;;;;;7.23;3.33;;;;;;;2.14;100.00;96784.88;5028026;28;20232;-88
2022/01/02 05:27:46;;;;;;;8.57;4.43;;;;;;;2.15;100.00;96791.88;5020303;28;20208;-88
2022/01/02 05:30:14;;;;;;;15.97;7.53;;;;;;;2.19;100.00;96787.06;5031645;28;20201;-89
2022/01/02 05:32:42;;;;;;;18.53;9.90;;;;;;;2.23;100.00;96791.03;5028475;28;20210;-88
2022/01/02 05:35:09;;;;;;;14.30;6.87;;;;;;;2.20;100.00;96783.41;5057190;28;20203;-90
2022/01/02 05:37:37;;;;;;;11.23;5.73;;;;;;;2.21;100.00;96783.22;5061246;28;20292;-89
2022/01/02 05:40:05;;;;;;;10.27;4.93;;;;;;;2.18;100.00;96774.72;5037653;28;20221;-89
2022/01/02 05:42:32;;;;;;;13.97;4.77;;;;;;;2.14;100.00;96771.56;5029119;28;20205;-88
2022/01/02 05:44:59;;;;;;;7.17;3.30;;;;;;;2.15;100.00;96767.91;5026942;28;20237;-89
2022/01/02 05:47:30;;;;;;;5.77;2.87;;;;;;;2.12;100.00;96762.94;5055423;28;20209;-89
2022/01/02 05:49:58;;;;;;;7.23;3.63;;;;;;;2.08;100.00;96761.59;5025181;28;20212;-89
2022/01/02 05:52:25;;;;;;;4.33;3.10;;;;;;;2.07;100.00;96762.59;5042114;28;20211;-89
2022/01/02 05:54:52;;;;;;;6.80;3.70;;;;;;;2.06;100.00;96762.75;5031453;28;20297;-89
2022/01/02 05:57:19;;;;;;;5.17;3.13;;;;;;;2.05;100.00;96761.06;5051602;28;20208;-90
2022/01/02 05:59:46;;;;;;;6.17;3.80;;;;;;;2.04;100.00;96776.22;5026630;28;20208;-89
2022/01/02 06:02:14;;;;;;;7.17;4.43;;;;;;;1.99;100.00;96783.88;5025559;28;20225;-89
2022/01/02 06:04:42;;;;;;;6.27;3.90;;;;;;;1.96;100.00;96768.22;5030658;28;20258;-89
2022/01/02 06:07:09;;;;;;;5.37;3.60;;;;;;;1.97;100.00;96758.41;5060161;28;20218;-88
2022/01/02 06:09:37;;;;;;;4.90;3.50;;;;;;;1.99;100.00;96762.59;5025613;28;20208;-89
2022/01/02 06:12:05;;;;;;;5.93;4.03;;;;;;;1.98;100.00;96760.09;5038332;28;20204;-90
2022/01/02 06:14:32;;;;;;;9.37;5.17;;;;;;;1.98;100.00;96749.44;5035490;28;20213;-89
2022/01/02 06:16:59;;;;;;;4.37;3.47;;;;;;;2.14;100.00;96744.91;5051432;28;20383;-89
2022/01/02 06:19:27;;;;;;;6.57;3.77;;;;;;;2.22;100.00;96742.25;5029446;28;20208;-88
2022/01/02 06:21:55;;;;;;;6.97;3.53;;;;;;;2.21;100.00;96734.44;5026044;28;20206;-89
2022/01/02 06:24:22;;;;;;;6.40;3.50;;;;;;;2.17;100.00;96733.09;5031741;28;20202;-89
2022/01/02 06:26:50;;;;;;;3.60;2.60;;;;;;;2.24;100.00;96734.91;5052275;28;20232;-88
2022/01/02 06:29:17;;;;;;;6.03;3.50;;;;;;;2.19;100.00;96745.25;5031115;28;20300;-88
2022/01/02 06:31:44;;;;;;;6.13;4.43;;;;;;;2.17;100.00;96755.25;5053872;28;20263;-89
2022/01/02 06:34:12;;;;;;;8.50;5.13;;;;;;;2.12;100.00;96752.28;5035203;28;20194;-90
2022/01/02 06:36:39;;;;;;;10.47;5.77;;;;;;;2.03;100.00;96763.94;5033772;28;20241;-89
2022/01/02 06:39:08;;;;;;;9.50;5.40;;;;;;;1.93;100.00;96767.75;5018654;28;20201;-89
2022/01/02 06:41:36;;;;;;;8.77;5.90;;;;;;;1.92;100.00;96787.38;5031201;28;20214;-89
2022/01/02 06:44:03;;;;;;;9.37;4.97;;;;;;;1.88;100.00;96797.53;5047811;28;20210;-89
2022/01/02 06:46:31;;;;;;;7.47;4.90;;;;;;;1.87;100.00;96791.38;5048517;28;20230;-89
2022/01/02 06:48:58;;;;;;;7.63;4.30;;;;;;;1.71;100.00;96799.34;5015863;28;20263;-89
2022/01/02 06:51:25;;;;;;;6.93;4.50;;;;;;;1.66;100.00;96814.16;5024081;28;20211;-90
2022/01/02 06:53:53;;;;;;;9.07;5.73;;;;;;;1.64;100.00;96816.13;5054653;28;20198;-88
2022/01/02 06:56:21;;;;;;;6.30;4.10;;;;;;;1.60;100.00;96828.13;5042235;28;20317;-89
2022/01/02 06:58:48;;;;;;;5.20;3.53;;;;;;;1.62;100.00;96842.06;5050794;28;20205;-89
2022/01/02 07:01:16;;;;;;;6.30;3.50;;;;;;;1.67;100.00;96848.59;5060327;28;20265;-89
2022/01/02 07:03:43;;;;;;;6.27;3.60;;;;;;;1.72;100.00;96856.06;5023586;28;20227;-90
2022/01/02 07:06:11;;;;;;;4.27;3.27;;;;;;;1.63;100.00;96846.41;5055622;28;20253;-89
2022/01/02 07:08:38;;;;;;;4.67;3.23;;;;;;;1.70;100.00;96861.56;5022731;28;20213;-89
2022/01/02 07:11:05;;;;;;;5.97;3.63;;;;;;;1.71;100.00;96860.56;5041843;28;20229;-88
2022/01/02 07:13:34;;;;;;;6.60;3.67;;;;;;;1.70;100.00;96858.09;5060313;28;20206;-88
2022/01/02 07:16:01;;;;;;;7.63;3.80;;;;;;;1.70;100.00;96866.06;5061710;28;20304;-89
2022/01/02 07:18:28;;;;;;;4.47;2.93;;;;;;;1.68;100.00;96862.75;5036083;28;20325;-87
2022/01/02 07:20:55;;;;;;;6.43;4.13;;;;;;;-141.59;100.00;61776.25;5024584;28;20209;-89
2022/01/02 07:23:22;;;;;;;5.00;3.47;;;;;;;-141.59;100.00;61776.25;5019817;28;20206;-88
2022/01/02 07:25:49;;;;;;;20.43;10.13;;;;;;;-141.59;100.00;61776.25;5052408;28;20240;-90
2022/01/02 07:28:16;;;;;;;14.40;7.30;;;;;;;-141.59;100.00;61776.25;5052787;28;20202;-89
2022/01/02 07:30:45;;;;;;;11.37;6.33;;;;;;;-141.59;100.00;61776.25;5019029;28;20199;-89
2022/01/02 07:33:12;;;;;;;12.70;6.83;;;;;;;-141.59;100.00;61776.25;5049837;28;20234;-90
2022/01/02 07:35:40;;;;;;;10.40;4.97;;;;;;;-141.59;100.00;61776.25;5045760;28;20241;-89
2022/01/02 07:38:07;;;;;;;6.83;4.20;;;;;;;-141.59;100.00;61776.25;5053862;28;20244;-90
2022/01/02 07:40:34;;;;;;;6.60;3.87;;;;;;;-141.59;100.00;61776.25;5066119;28;20262;-89
2022/01/02 07:43:01;;;;;;;7.53;4.20;;;;;;;-141.59;100.00;61776.25;5059527;28;20212;-89
2022/01/02 07:45:32;;;;;;;7.13;3.90;;;;;;;-141.59;100.00;61776.25;5030409;28;20279;-89
2022/01/02 07:48:01;;;;;;;6.97;4.23;;;;;;;-141.59;100.00;61776.25;5041692;28;20194;-88
2022/01/02 07:50:28;;;;;;;4.60;3.47;;;;;;;-141.59;100.00;61776.25;5022987;28;20295;-90
2022/01/02 07:52:55;;;;;;;5.60;3.80;;;;;;;-141.59;100.00;61776.25;5050183;28;20224;-90
2022/01/02 07:55:22;;;;;;;6.10;3.47;;;;;;;-141.59;100.00;61776.25;5062446;28;20237;-89
2022/01/02 07:57:49;;;;;;;6.67;3.80;;;;;;;-141.59;100.00;61776.25;5031934;28;20195;-90
2022/01/02 08:00:18;;;;;;;6.03;3.90;;;;;;;-141.59;100.00;61776.25;5029935;28;20231;-89
2022/01/02 08:02:45;;;;;;;5.93;3.73;;;;;;;-141.59;100.00;61776.25;5060457;28;20209;-88
2022/01/02 08:05:14;;;;;;;6.33;4.03;;;;;;;-141.59;100.00;61776.25;5047846;28;20238;-90
2022/01/02 08:07:41;;;;;;;5.17;3.73;;;;;;;-141.59;100.00;61776.25;5035552;28;20217;-89
2022/01/02 08:10:09;;;;;;;6.47;4.50;;;;;;;-141.59;100.00;61776.25;5041752;28;20287;-89
2022/01/02 08:12:37;;;;;;;5.37;4.10;;;;;;;-141.59;100.00;61776.25;5063648;28;20211;-90
2022/01/02 08:15:05;;;;;;;6.27;4.20;;;;;;;-141.59;100.00;61776.25;5034865;28;20191;-90
2022/01/02 08:17:32;;;;;;;7.10;4.47;;;;;;;-141.59;100.00;61776.25;5027187;28;20213;-89
2022/01/02 08:19:59;;;;;;;8.10;4.20;;;;;;;-141.59;100.00;61776.25;5027953;28;20202;-88
2022/01/02 08:22:27;;;;;;;6.40;4.10;;;;;;;-141.59;100.00;61776.25;5037998;28;20197;-89
2022/01/02 08:24:54;;;;;;;6.70;4.30;;;;;;;-141.59;100.00;61776.25;5037279;28;20214;-91
2022/01/02 08:27:22;;;;;;;9.27;6.53;;;;;;;-141.59;100.00;61776.25;5027664;28;20236;-89
2022/01/02 08:29:49;;;;;;;7.67;5.60;;;;;;;-141.59;100.00;61776.25;5057010;28;20268;-89
2022/01/02 08:32:16;;;;;;;8.20;4.93;;;;;;;-141.59;100.00;61776.25;5040808;28;20207;-89
2022/01/02 08:34:43;;;;;;;7.53;4.73;;;;;;;-141.59;100.00;61776.25;5059101;28;20230;-88
2022/01/02 08:37:11;;;;;;;9.37;5.50;;;;;;;-141.59;100.00;61776.25;5011345;28;20249;-90
2022/01/02 08:39:39;;;;;;;9.50;5.40;;;;;;;-141.59;100.00;61776.25;5016013;28;20221;-88
2022/01/02 08:42:07;;;;;;;7.23;5.10;;;;;;;-141.59;100.00;61776.25;5008264;28;20499;-90
2022/01/02 08:44:34;;;;;;;7.07;5.23;;;;;;;-141.59;100.00;61776.25;5005206;28;20217;-89
2022/01/02 08:47:01;;;;;;;11.17;6.20;;;;;;;-141.59;100.00;61776.25;5016029;28;20215;-89
2022/01/02 08:49:28;;;;;;;11.90;6.80;;;;;;;-141.59;100.00;61776.25;5043142;28;20207;-89
2022/01/02 08:51:55;;;;;;;9.77;5.97;;;;;;;-141.59;100.00;61776.25;5008976;28;20297;-90
2022/01/02 08:54:23;;;;;;;8.00;5.30;;;;;;;-141.59;100.00;61776.25;5040903;28;20292;-89
2022/01/02 08:56:52;;;;;;;7.87;5.13;;;;;;;-141.59;100.00;61776.25;5006430;28;20329;-89
2022/01/02 08:59:24;;;;;;;7.03;4.73;;;;;;;-141.59;100.00;61776.25;5020012;28;20218;-89
2022/01/02 09:01:51;;;;;;;8.90;4.90;;;;;;;-141.59;100.00;61776.25;5003910;28;20266;-88
2022/01/02 09:04:18;;;;;;;5.87;4.83;;;;;;;-141.59;100.00;61776.25;5024827;28;20225;-86
2022/01/02 09:06:46;;;;;;;7.63;5.60;;;;;;;-141.59;100.00;61776.25;5019090;28;20219;-89
2022/01/02 09:09:13;;;;;;;8.57;6.10;;;;;;;-141.59;100.00;61776.25;5007610;28;20265;-88
2022/01/02 09:11:40;;;;;;;12.03;7.80;;;;;;;-141.59;100.00;61776.25;5041496;28;20206;-88
2022/01/02 09:14:08;;;;;;;16.27;8.73;;;;;;;-141.59;100.00;61776.25;5041178;28;20203;-88
2022/01/02 09:16:36;;;;;;;14.57;7.97;;;;;;;-141.59;100.00;61776.25;5020688;28;20466;-89
2022/01/02 09:19:03;;;;;;;12.27;7.30;;;;;;;-141.59;100.00;61776.25;5007767;28;20199;-87
2022/01/02 09:21:30;;;;;;;14.30;9.87;;;;;;;-141.59;100.00;61776.25;5021370;28;20865;-89
2022/01/02 09:23:57;;;;;;;11.87;6.90;;;;;;;-141.59;100.00;61776.25;5016823;28;20306;-88
2022/01/02 09:26:24;;;;;;;12.00;6.83;;;;;;;-141.59;100.00;61776.25;5041479;28;20230;-88
2022/01/02 09:28:51;;;;;;;10.73;6.13;;;;;;;-141.59;100.00;61776.25;5022739;28;20522;-88
2022/01/02 09:31:20;;;;;;;6.90;4.77;;;;;;;-141.59;100.00;61776.25;5040331;28;20235;-89
2022/01/02 09:33:47;;;;;;;9.63;6.50;;;;;;;-141.59;100.00;61776.25;5041958;28;20298;-88
2022/01/02 09:36:15;;;;;;;27.40;16.47;;;;;;;-141.59;100.00;61776.25;5013387;28;20313;-89
2022/01/02 09:38:42;;;;;;;17.37;10.50;;;;;;;-141.59;100.00;61776.25;5021300;28;20201;-88
2022/01/02 09:41:10;;;;;;;13.13;7.93;;;;;;;-141.59;100.00;61776.25;5030997;28;20202;-88
2022/01/02 09:43:37;;;;;;;8.83;5.93;;;;;;;-141.59;100.00;61776.25;5031014;28;20210;-88
2022/01/02 09:46:05;;;;;;;10.57;6.13;;;;;;;-141.59;100.00;61776.25;5046912;28;20250;-90
2022/01/02 09:48:33;;;;;;;5.80;4.30;;;;;;;-141.59;100.00;61776.25;5036779;28;20233;-84
2022/01/02 09:51:01;;;;;;;5.60;3.90;;;;;;;-141.59;100.00;61776.25;5037340;28;20283;-87
2022/01/02 09:53:28;;;;;;;5.07;3.67;;;;;;;-141.59;100.00;61776.25;5056275;28;20387;-89
2022/01/02 09:55:55;;;;;;;6.20;3.57;;;;;;;-141.59;100.00;61776.25;5027602;28;20218;-89
2022/01/02 09:58:22;;;;;;;5.30;3.43;;;;;;;-141.59;100.00;61776.25;5047225;28;20213;-89
2022/01/02 10:00:50;;;;;;;5.67;3.30;;;;;;;-141.59;100.00;61776.25;5016010;28;20234;-89
2022/01/02 10:03:18;;;;;;;4.77;3.67;;;;;;;-141.59;100.00;61776.25;5027465;28;20262;-89
2022/01/02 10:05:56;;;;;;;6.17;3.93;;;;;;;-141.59;100.00;61776.25;5037468;28;20301;-89
2022/01/02 10:08:25;;;;;;;5.57;3.87;;;;;;;-141.59;100.00;61776.25;5025750;28;20206;-88
2022/01/02 10:11:01;;;;;;;5.50;3.70;;;;;;;-141.59;100.00;61776.25;5043466;28;20213;-88
2022/01/02 10:13:40;;;;;;;4.90;3.40;;;;;;;-141.59;100.00;61776.25;5061354;28;20214;-88
2022/01/02 10:16:20;;;;;;;5.37;3.77;;;;;;;-141.59;100.00;61776.25;5061847;28;20224;-88
2022/01/02 10:18:48;;;;;;;5.27;3.50;;;;;;;-141.59;100.00;61776.25;5026838;28;20213;-88
2022/01/02 10:21:29;;;;;;;4.87;3.53;;;;;;;-141.59;100.00;61776.25;5027336;28;20209;-88
2022/01/02 10:24:17;;;;;;;5.60;4.03;;;;;;;-141.59;100.00;61776.25;5052992;28;20217;-88
2022/01/02 10:27:07;;;;;;;14.23;8.90;;;;;;;-141.59;100.00;61776.25;5032647;28;20237;-88
2022/01/02 10:29:51;;;;;;;6.97;4.60;;;;;;;-141.59;100.00;61776.25;5053753;28;20214;-88
2022/01/02 10:32:26;;;;;;;6.87;4.50;;;;;;;-141.59;100.00;61776.25;5046863;28;20202;-88
2022/01/02 10:35:07;;;;;;;5.43;4.43;;;;;;;-141.59;100.00;61776.25;5047640;28;20461;-89
2022/01/02 10:37:36;;;;;;;6.43;4.63;;;;;;;-141.59;100.00;61776.25;5051999;28;20221;-88
2022/01/02 10:40:03;;;;;;;6.97;4.90;;;;;;;-141.59;100.00;61776.25;5045353;28;20216;-88
2022/01/02 10:42:41;;;;;;;7.83;4.70;;;;;;;-141.59;100.00;61776.25;5029896;28;20199;-88
2022/01/02 10:45:09;;;;;;;6.30;4.67;;;;;;;-141.59;100.00;61776.25;5027707;28;20233;-88
2022/01/02 10:47:36;;;;;;;5.73;3.93;;;;;;;-141.59;100.00;61776.25;5051209;28;20214;-88
2022/01/02 10:50:06;;;;;;;6.47;3.77;;;;;;;-141.59;100.00;61776.25;5031070;28;20303;-88
2022/01/02 10:52:40;;;;;;;5.40;4.13;;;;;;;-141.59;100.00;61776.25;5030706;28;20218;-89
2022/01/02 10:55:16;;;;;;;6.37;4.03;;;;;;;-141.59;100.00;61776.25;5028461;28;20203;-89
2022/01/02 10:57:46;;;;;;;7.03;4.50;;;;;;;-141.59;100.00;61776.25;5051699;28;20214;-88
2022/01/02 11:00:15;;;;;;;8.07;4.50;;;;;;;-141.59;100.00;61776.25;5024714;28;20206;-89
2022/01/02 11:02:42;;;;;;;6.77;4.10;;;;;;;-141.59;100.00;61776.25;5059310;28;20210;-88
2022/01/02 11:05:11;;;;;;;8.50;4.70;;;;;;;-141.59;100.00;61776.25;5063668;28;20233;-88
2022/01/02 11:07:42;;;;;;;6.83;4.27;;;;;;;-141.59;100.00;61776.25;5054840;28;20227;-89
2022/01/02 11:10:10;;;;;;;4.77;3.77;;;;;;;-141.59;100.00;61776.25;5041297;28;20195;-89
2022/01/02 11:12:39;;;;;;;8.47;4.10;;;;;;;-141.59;100.00;61776.25;5062835;28;20214;-88
2022/01/02 11:15:08;;;;;;;6.87;4.53;;;;;;;-141.59;100.00;61776.25;5059623;28;20230;-88
2022/01/02 11:17:36;;;;;;;5.67;3.80;;;;;;;-141.59;100.00;61776.25;5047135;28;20206;-88
2022/01/02 11:20:05;;;;;;;5.57;3.80;;;;;;;-141.59;100.00;61776.25;5029663;28;20199;-88
2022/01/02 11:22:36;;;;;;;5.40;3.87;;;;;;;-141.59;100.00;61776.25;5037318;28;20220;-88
2022/01/02 11:25:13;;;;;;;6.13;3.63;;;;;;;-141.59;100.00;61776.25;5035781;28;20210;-88
2022/01/02 11:27:44;;;;;;;4.83;3.97;;;;;;;-141.59;100.00;61776.25;5033139;28;20298;-91
2022/01/02 11:30:42;;;;;;;6.73;4.40;;;;;;;-141.59;100.00;61776.25;5049162;28;20198;-89
2022/01/02 11:33:13;;;;;;;5.20;4.50;;;;;;;-141.59;100.00;61776.25;4961796;28;20407;-89
2022/01/02 11:35:43;;;;;;;8.73;4.87;;;;;;;-141.59;100.00;61776.25;5007926;28;20237;-89
2022/01/02 11:38:11;;;;;;;6.80;4.50;;;;;;;-141.59;100.00;61776.25;5028163;28;20237;-89